Time;durP1;ratioP1;P1;durP2;ratioP2;P2;SDS_P1;SDS_P2;PMS_P1;PMS_P2;Temp;Humidity;BMP_temperature;BMP_pressure;BME280_temperature;BME280_humidity;BME280_pressure;Samples;Min_cycle;Max_cycle;Signal;HPM_P1;HPM_P2
2021/08/09 00:00:58;;;;;;;;;;;17.80;77.50;;;;;;5070403;28;19976;-73
2021/08/09 00:03:28;;;;;;;;;;;17.80;77.70;;;;;;5069958;27;19954;-73
2021/08/09 00:06:00;;;;;;;;;;;17.80;77.70;;;;;;5070042;27;20406;-73
2021/08/09 00:08:30;;;;;;;;;;;17.80;77.70;;;;;;5069263;27;19931;-73
2021/08/09 00:10:58;;;;;;;;;;;17.80;77.90;;;;;;5070286;27;19974;-73
2021/08/09 00:13:42;;;;;;;;;;;17.80;78.00;;;;;;5069864;27;19932;-73
2021/08/09 00:16:13;;;;;;;;;;;17.80;78.00;;;;;;5061315;27;19972;-73
2021/08/09 00:18:46;;;;;;;;;;;17.70;78.20;;;;;;5066982;27;19925;-73
2021/08/09 00:21:14;;;;;;;;;;;17.70;78.50;;;;;;5069589;27;19928;-73
2021/08/09 00:23:42;;;;;;;;;;;17.60;78.60;;;;;;5069193;27;19977;-73
2021/08/09 00:26:09;;;;;;;;;;;17.60;78.60;;;;;;5069601;27;20340;-73
2021/08/09 00:28:37;;;;;;;;;;;17.70;78.50;;;;;;5069678;27;19924;-73
2021/08/09 00:31:05;;;;;;;;;;;17.70;78.40;;;;;;5069618;27;19928;-73
2021/08/09 00:33:32;;;;;;;;;;;17.70;78.30;;;;;;5069803;27;19976;-73
2021/08/09 00:36:00;;;;;;;;;;;17.70;79.10;;;;;;5065979;27;19929;-73
2021/08/09 00:38:28;;;;;;;;;;;17.80;78.20;;;;;;5060927;27;19935;-73
2021/08/09 00:40:56;;;;;;;;;;;17.80;78.20;;;;;;5069326;27;20310;-73
2021/08/09 00:43:26;;;;;;;;;;;17.80;78.20;;;;;;5069660;27;20085;-73
2021/08/09 00:45:53;;;;;;;;;;;17.80;78.20;;;;;;5069346;27;20268;-73
2021/08/09 00:48:24;;;;;;;;;;;17.80;78.20;;;;;;5068656;27;19932;-73
2021/08/09 00:50:53;;;;;;;;;;;17.70;78.30;;;;;;5069139;27;19924;-73
2021/08/09 00:53:21;;;;;;;;;;;17.70;78.40;;;;;;5069290;27;19924;-73
2021/08/09 00:55:51;;;;;;;;;;;17.70;78.60;;;;;;5069427;27;19924;-73
2021/08/09 00:58:20;;;;;;;;;;;17.60;78.60;;;;;;5069228;27;20392;-73
2021/08/09 01:00:47;;;;;;;;;;;17.60;78.60;;;;;;5068810;27;19976;-73
2021/08/09 01:03:25;;;;;;;;;;;17.60;78.50;;;;;;5067453;27;20022;-73
2021/08/09 01:06:03;;;;;;;;;;;17.60;78.60;;;;;;5069240;27;19928;-73
2021/08/09 01:08:36;;;;;;;;;;;17.60;78.70;;;;;;5069116;27;20387;-73
2021/08/09 01:11:10;;;;;;;;;;;17.60;78.90;;;;;;5069255;27;19948;-73
2021/08/09 01:14:01;;;;;;;;;;;17.50;79.00;;;;;;5068778;27;20359;-73
2021/08/09 01:16:35;;;;;;;;;;;17.50;79.20;;;;;;5078666;28;20377;-73
2021/08/09 01:19:33;;;;;;;;;;;17.50;79.40;;;;;;5061603;28;19973;-73
2021/08/09 01:22:18;;;;;;;;;;;17.50;79.50;;;;;;5049616;28;20031;-73
2021/08/09 01:25:15;;;;;;;;;;;17.50;79.40;;;;;;5049449;28;19932;-73
2021/08/09 01:27:54;;;;;;;;;;;17.50;79.20;;;;;;5049655;28;19957;-73
2021/08/09 01:30:27;;;;;;;;;;;17.60;79.10;;;;;;5049428;28;19928;-73
2021/08/09 01:33:01;;;;;;;;;;;17.60;79.20;;;;;;5022931;28;19929;-73
2021/08/09 01:35:41;;;;;;;;;;;17.60;79.10;;;;;;5048720;28;20331;-73
2021/08/09 01:38:35;;;;;;;;;;;17.60;79.00;;;;;;5033174;28;19924;-73
2021/08/09 01:41:17;;;;;;;;;;;17.60;78.90;;;;;;5018292;28;19925;-73
2021/08/09 01:44:03;;;;;;;;;;;17.60;78.90;;;;;;5049552;28;20514;-73
2021/08/09 01:46:57;;;;;;;;;;;17.70;79.00;;;;;;5040029;28;19925;-73
2021/08/09 01:49:45;;;;;;;;;;;17.60;79.00;;;;;;5048999;28;19953;-73
2021/08/09 01:52:35;;;;;;;;;;;17.60;79.00;;;;;;5045842;28;20396;-73
2021/08/09 01:55:23;;;;;;;;;;;17.60;79.10;;;;;;5019764;28;19925;-73
2021/08/09 01:58:10;;;;;;;;;;;17.70;79.20;;;;;;4997891;28;19925;-73
2021/08/09 02:00:59;;;;;;;;;;;17.70;79.50;;;;;;5057025;27;19975;-73
2021/08/09 02:03:47;;;;;;;;;;;17.70;79.60;;;;;;5063751;27;20383;-73
2021/08/09 02:06:39;;;;;;;;;;;17.70;79.80;;;;;;5039295;27;20423;-73
2021/08/09 02:09:27;;;;;;;;;;;17.70;80.00;;;;;;5053201;27;19939;-73
2021/08/09 02:12:17;;;;;;;;;;;17.70;80.00;;;;;;5070797;28;20015;-73
2021/08/09 02:15:15;;;;;;;;;;;17.70;80.20;;;;;;5070467;28;19929;-73
2021/08/09 02:18:16;;;;;;;;;;;17.70;80.30;;;;;;5070361;27;19980;-74
2021/08/09 02:20:56;;;;;;;;;;;17.70;80.50;;;;;;5057205;27;20392;-72
2021/08/09 02:23:51;;;;;;;;;;;17.60;81.10;;;;;;5059062;27;20003;-73
2021/08/09 02:26:31;;;;;;;;;;;17.50;81.60;;;;;;5071755;27;19936;-73
2021/08/09 02:29:06;;;;;;;;;;;17.50;82.00;;;;;;5072014;27;20023;-73
2021/08/09 02:31:46;;;;;;;;;;;17.50;82.20;;;;;;5071225;27;20045;-73
2021/08/09 02:34:37;;;;;;;;;;;17.50;82.10;;;;;;5071262;27;19925;-73
2021/08/09 02:37:27;;;;;;;;;;;17.50;82.30;;;;;;5064767;27;19928;-73
2021/08/09 02:40:18;;;;;;;;;;;17.50;82.20;;;;;;5071264;27;19947;-73
2021/08/09 02:43:06;;;;;;;;;;;17.50;82.50;;;;;;5071321;27;19925;-73
2021/08/09 02:45:55;;;;;;;;;;;17.50;82.60;;;;;;5070969;27;19924;-73
2021/08/09 02:48:48;;;;;;;;;;;17.50;82.70;;;;;;5070849;27;19928;-73
2021/08/09 02:51:35;;;;;;;;;;;17.50;82.70;;;;;;5071267;27;19924;-73
2021/08/09 02:54:30;;;;;;;;;;;17.50;82.60;;;;;;5049018;27;20421;-73
2021/08/09 02:57:18;;;;;;;;;;;17.50;82.60;;;;;;5056742;27;19931;-73
2021/08/09 03:00:00;;;;;;;;;;;17.40;82.70;;;;;;5070706;27;19925;-73
2021/08/09 03:02:44;;;;;;;;;;;17.40;83.00;;;;;;5071050;27;19988;-73
2021/08/09 03:05:17;;;;;;;;;;;17.40;83.90;;;;;;5070986;27;19925;-73
2021/08/09 03:08:00;;;;;;;;;;;17.40;82.90;;;;;;5070970;27;20299;-73
2021/08/09 03:10:40;;;;;;;;;;;17.40;82.70;;;;;;5070759;27;19953;-73
2021/08/09 03:13:34;;;;;;;;;;;17.40;82.70;;;;;;5070797;27;19924;-73
2021/08/09 03:16:23;;;;;;;;;;;17.40;82.60;;;;;;5067269;27;20431;-73
2021/08/09 03:19:11;;;;;;;;;;;17.40;82.50;;;;;;5071041;27;19947;-73
2021/08/09 03:21:58;;;;;;;;;;;17.50;83.10;;;;;;5051079;27;19928;-73
2021/08/09 03:24:44;;;;;;;;;;;17.50;82.50;;;;;;5070304;27;19980;-73
2021/08/09 03:27:32;;;;;;;;;;;17.50;82.40;;;;;;5070456;27;19924;-73
2021/08/09 03:30:19;;;;;;;;;;;17.50;82.40;;;;;;5070344;27;19968;-73
2021/08/09 03:33:09;;;;;;;;;;;17.50;82.40;;;;;;5070374;27;19969;-73
2021/08/09 03:36:03;;;;;;;;;;;17.50;83.30;;;;;;5066708;27;19946;-73
2021/08/09 03:38:51;;;;;;;;;;;17.50;82.40;;;;;;5070475;28;20334;-73
2021/08/09 03:41:39;;;;;;;;;;;17.50;82.10;;;;;;5070479;27;19924;-73
2021/08/09 03:44:15;;;;;;;;;;;17.50;82.40;;;;;;5069405;28;19928;-73
2021/08/09 03:46:44;;;;;;;;;;;17.50;82.30;;;;;;5070169;27;19932;-73
2021/08/09 03:49:20;;;;;;;;;;;17.40;82.40;;;;;;5070500;27;20387;-73
2021/08/09 03:51:50;;;;;;;;;;;17.30;82.70;;;;;;5070280;27;19932;-74
2021/08/09 03:54:20;;;;;;;;;;;17.30;82.80;;;;;;5070264;27;20433;-73
2021/08/09 03:56:48;;;;;;;;;;;17.30;82.90;;;;;;5056016;28;19931;-73
2021/08/09 03:59:17;;;;;;;;;;;17.30;82.90;;;;;;5055276;27;19989;-73
2021/08/09 04:01:48;;;;;;;;;;;17.30;82.70;;;;;;5070087;27;19928;-73
2021/08/09 04:04:16;;;;;;;;;;;17.30;82.50;;;;;;5070457;27;19979;-73
2021/08/09 04:06:44;;;;;;;;;;;17.30;82.40;;;;;;5070096;27;19935;-73
2021/08/09 04:09:11;;;;;;;;;;;17.30;82.30;;;;;;5068739;28;19924;-74
2021/08/09 04:11:38;;;;;;;;;;;17.30;82.20;;;;;;5070082;27;20004;-74
2021/08/09 04:14:06;;;;;;;;;;;17.20;82.30;;;;;;5069934;27;19980;-74
2021/08/09 04:17:00;;;;;;;;;;;17.20;82.30;;;;;;5061505;27;20066;-73
2021/08/09 04:19:42;;;;;;;;;;;17.10;82.70;;;;;;5064809;27;19931;-73
2021/08/09 04:22:28;;;;;;;;;;;17.00;82.90;;;;;;5061004;27;19964;-73
2021/08/09 04:25:02;;;;;;;;;;;17.00;83.10;;;;;;5058599;27;19968;-74
2021/08/09 04:27:44;;;;;;;;;;;17.00;83.20;;;;;;5065643;27;19935;-74
2021/08/09 04:30:36;;;;;;;;;;;17.00;83.30;;;;;;5067486;27;19932;-73
2021/08/09 04:33:17;;;;;;;;;;;17.00;83.20;;;;;;5067233;27;19924;-74
2021/08/09 04:35:47;;;;;;;;;;;17.10;83.10;;;;;;5066545;27;19924;-73
2021/08/09 04:38:35;;;;;;;;;;;17.10;83.00;;;;;;5045424;27;19924;-76
2021/08/09 04:41:07;;;;;;;;;;;17.10;82.60;;;;;;5065819;27;20618;-76
2021/08/09 04:44:02;;;;;;;;;;;17.10;83.60;;;;;;5067192;27;19939;-76
2021/08/09 04:46:47;;;;;;;;;;;17.10;82.70;;;;;;5065935;27;19981;-76
2021/08/09 04:49:25;;;;;;;;;;;17.10;82.80;;;;;;5067065;27;19928;-78
2021/08/09 04:51:53;;;;;;;;;;;17.10;82.70;;;;;;5065702;27;19928;-75
2021/08/09 04:54:19;;;;;;;;;;;17.10;82.60;;;;;;5049004;27;19932;-76
2021/08/09 04:56:46;;;;;;;;;;;17.10;82.80;;;;;;5028058;27;19936;-75
2021/08/09 04:59:12;;;;;;;;;;;17.10;82.90;;;;;;5036591;27;19976;-76
2021/08/09 05:01:38;;;;;;;;;;;17.10;82.90;;;;;;5035426;27;19932;-75
2021/08/09 05:04:05;;;;;;;;;;;17.10;82.80;;;;;;5050919;27;19935;-75
2021/08/09 05:06:32;;;;;;;;;;;17.20;82.70;;;;;;5028884;27;19929;-75
2021/08/09 05:08:58;;;;;;;;;;;17.20;82.70;;;;;;5031014;27;19951;-76
2021/08/09 05:11:26;;;;;;;;;;;17.20;83.70;;;;;;5065269;27;19977;-75
2021/08/09 05:13:53;;;;;;;;;;;17.20;82.70;;;;;;5033661;28;19933;-75
2021/08/09 05:16:19;;;;;;;;;;;17.20;82.60;;;;;;5042656;27;19931;-75
2021/08/09 05:18:48;;;;;;;;;;;17.30;82.40;;;;;;5051084;27;19990;-74
2021/08/09 05:21:15;;;;;;;;;;;17.30;82.30;;;;;;5061961;27;19924;-76
2021/08/09 05:23:42;;;;;;;;;;;17.30;82.20;;;;;;5061650;27;19928;-81
2021/08/09 05:26:10;;;;;;;;;;;17.30;82.10;;;;;;5059740;27;20315;-75
2021/08/09 05:28:36;;;;;;;;;;;17.30;82.10;;;;;;5063206;27;19928;-73
2021/08/09 05:31:03;;;;;;;;;;;17.30;82.30;;;;;;5054754;27;19925;-74
2021/08/09 05:33:30;;;;;;;;;;;17.30;82.70;;;;;;5049147;27;19968;-75
2021/08/09 05:35:56;;;;;;;;;;;17.20;82.90;;;;;;5049780;28;19969;-74
2021/08/09 05:38:23;;;;;;;;;;;17.20;82.90;;;;;;5053749;27;19972;-73
2021/08/09 05:40:50;;;;;;;;;;;17.20;82.80;;;;;;5053709;27;20372;-74
2021/08/09 05:43:16;;;;;;;;;;;17.20;82.70;;;;;;5054759;27;19972;-75
2021/08/09 05:45:43;;;;;;;;;;;17.30;82.70;;;;;;5053811;28;19972;-74
2021/08/09 05:48:09;;;;;;;;;;;17.30;82.90;;;;;;5054743;27;19933;-73
2021/08/09 05:50:36;;;;;;;;;;;17.20;82.90;;;;;;5050550;27;20340;-74
2021/08/09 05:53:04;;;;;;;;;;;17.20;83.00;;;;;;5059302;27;19924;-73
2021/08/09 05:55:32;;;;;;;;;;;17.30;83.10;;;;;;5072023;27;19967;-72
2021/08/09 05:57:59;;;;;;;;;;;17.30;83.10;;;;;;5072006;27;19924;-73
2021/08/09 06:00:26;;;;;;;;;;;17.30;83.10;;;;;;5071647;27;20406;-74
2021/08/09 06:02:52;;;;;;;;;;;17.30;83.20;;;;;;5064169;27;19925;-74
2021/08/09 06:05:18;;;;;;;;;;;17.40;83.20;;;;;;5031944;27;20013;-73
2021/08/09 06:07:50;;;;;;;;;;;17.40;83.20;;;;;;5048766;27;19954;-73
2021/08/09 06:10:17;;;;;;;;;;;17.40;83.20;;;;;;5035605;27;19929;-73
2021/08/09 06:12:44;;;;;;;;;;;17.40;83.30;;;;;;5039551;27;19982;-73
2021/08/09 06:15:10;;;;;;;;;;;17.40;83.60;;;;;;5051833;27;19929;-74
2021/08/09 06:17:37;;;;;;;;;;;17.40;83.70;;;;;;5060335;27;19925;-75
2021/08/09 06:20:04;;;;;;;;;;;17.40;83.60;;;;;;5061386;27;19933;-74
2021/08/09 06:22:30;;;;;;;;;;;17.40;83.60;;;;;;5056818;27;20016;-75
2021/08/09 06:24:57;;;;;;;;;;;17.40;83.60;;;;;;5067760;27;20007;-75
2021/08/09 06:27:23;;;;;;;;;;;17.40;83.40;;;;;;5063478;27;19932;-74
2021/08/09 06:29:50;;;;;;;;;;;17.40;83.50;;;;;;5065895;27;19978;-74
2021/08/09 06:32:16;;;;;;;;;;;17.50;83.50;;;;;;5064143;27;20319;-74
2021/08/09 06:34:43;;;;;;;;;;;17.50;83.70;;;;;;5064046;27;19928;-74
2021/08/09 06:37:09;;;;;;;;;;;17.50;84.00;;;;;;5066300;27;20019;-74
2021/08/09 06:39:36;;;;;;;;;;;17.40;84.10;;;;;;5062118;27;20415;-74
2021/08/09 06:42:04;;;;;;;;;;;17.40;84.20;;;;;;5066566;27;19924;-74
2021/08/09 06:44:32;;;;;;;;;;;17.40;84.30;;;;;;5061791;27;20383;-74
2021/08/09 06:46:58;;;;;;;;;;;17.50;84.30;;;;;;5066443;27;20343;-74
2021/08/09 06:49:26;;;;;;;;;;;17.50;84.20;;;;;;5062848;27;19929;-74
2021/08/09 06:51:52;;;;;;;;;;;17.50;84.30;;;;;;5064909;27;19925;-74
2021/08/09 06:54:20;;;;;;;;;;;17.50;84.30;;;;;;5066382;27;19924;-74
2021/08/09 06:56:47;;;;;;;;;;;17.50;84.40;;;;;;5071342;27;19932;-74
2021/08/09 06:59:14;;;;;;;;;;;17.50;84.70;;;;;;5071264;27;19924;-74
2021/08/09 07:01:40;;;;;;;;;;;17.50;84.80;;;;;;5071272;27;19924;-74
2021/08/09 07:04:07;;;;;;;;;;;17.50;85.10;;;;;;5070867;27;20023;-74
2021/08/09 07:06:34;;;;;;;;;;;17.40;85.10;;;;;;5071010;27;19924;-74
2021/08/09 07:09:03;;;;;;;;;;;17.40;85.30;;;;;;5070929;27;19928;-74
2021/08/09 07:11:29;;;;;;;;;;;17.40;85.70;;;;;;5071378;27;19932;-74
2021/08/09 07:13:57;;;;;;;;;;;17.40;85.80;;;;;;5070964;27;19935;-74
2021/08/09 07:16:26;;;;;;;;;;;17.40;85.70;;;;;;5068126;27;20371;-74
2021/08/09 07:18:53;;;;;;;;;;;17.40;85.70;;;;;;5070819;27;19963;-74
2021/08/09 07:21:20;;;;;;;;;;;17.40;85.70;;;;;;5070629;27;19947;-74
2021/08/09 07:23:47;;;;;;;;;;;17.50;86.70;;;;;;5071063;27;19936;-75
2021/08/09 07:26:13;;;;;;;;;;;17.50;85.70;;;;;;5070922;27;19932;-74
2021/08/09 07:28:40;;;;;;;;;;;17.50;85.40;;;;;;5070539;27;20415;-74
2021/08/09 07:31:06;;;;;;;;;;;17.60;85.50;;;;;;5070780;27;19951;-74
2021/08/09 07:33:33;;;;;;;;;;;17.60;85.60;;;;;;5070865;28;20340;-74
2021/08/09 07:36:00;;;;;;;;;;;17.60;85.30;;;;;;5067242;27;19932;-74
2021/08/09 07:38:28;;;;;;;;;;;17.60;85.20;;;;;;5043000;27;20395;-74
2021/08/09 07:40:55;;;;;;;;;;;17.60;85.20;;;;;;5070503;28;19925;-74
2021/08/09 07:43:22;;;;;;;;;;;17.70;84.80;;;;;;5070097;27;20377;-74
2021/08/09 07:45:48;;;;;;;;;;;17.70;84.90;;;;;;5069170;28;20398;-74
2021/08/09 07:48:16;;;;;;;;;;;17.70;84.90;;;;;;5070434;27;19932;-74
2021/08/09 07:50:43;;;;;;;;;;;17.70;84.60;;;;;;5070310;27;19997;-74
2021/08/09 07:53:10;;;;;;;;;;;17.80;84.60;;;;;;5070386;27;19931;-74
2021/08/09 07:55:37;;;;;;;;;;;17.80;84.40;;;;;;5070414;27;19936;-74
2021/08/09 07:58:04;;;;;;;;;;;17.90;83.90;;;;;;5070393;27;20443;-74
2021/08/09 08:00:30;;;;;;;;;;;17.80;83.80;;;;;;5069359;27;19925;-74
2021/08/09 08:02:56;;;;;;;;;;;17.80;84.20;;;;;;5070359;27;20122;-74
2021/08/09 08:05:22;;;;;;;;;;;17.80;84.30;;;;;;5069849;27;19952;-74
2021/08/09 08:07:52;;;;;;;;;;;17.80;84.30;;;;;;5070203;27;20019;-74
2021/08/09 08:10:19;;;;;;;;;;;17.80;84.50;;;;;;5070331;27;19925;-74
2021/08/09 08:12:45;;;;;;;;;;;17.80;84.90;;;;;;5070019;27;19973;-74
2021/08/09 08:15:13;;;;;;;;;;;17.80;84.80;;;;;;5069887;27;19925;-74
2021/08/09 08:17:40;;;;;;;;;;;17.80;84.70;;;;;;5065699;27;20315;-74
2021/08/09 08:20:07;;;;;;;;;;;17.80;84.80;;;;;;5069745;27;20015;-74
2021/08/09 08:22:34;;;;;;;;;;;17.80;85.00;;;;;;5070065;27;19924;-74
2021/08/09 08:25:00;;;;;;;;;;;17.80;85.10;;;;;;5068515;28;19932;-74
2021/08/09 08:27:27;;;;;;;;;;;17.80;85.00;;;;;;5070121;27;19924;-74
2021/08/09 08:29:54;;;;;;;;;;;17.90;84.70;;;;;;5069707;27;19935;-74
2021/08/09 08:32:20;;;;;;;;;;;18.00;84.70;;;;;;5070016;27;19924;-74
2021/08/09 08:34:48;;;;;;;;;;;18.00;84.60;;;;;;5069574;27;19979;-74
2021/08/09 08:37:15;;;;;;;;;;;18.10;84.60;;;;;;5066330;27;19953;-74
2021/08/09 08:39:42;;;;;;;;;;;18.30;83.50;;;;;;5069294;27;20003;-74
2021/08/09 08:42:13;;;;;;;;;;;18.60;83.10;;;;;;5069658;27;19935;-74
2021/08/09 08:44:43;;;;;;;;;;;18.90;82.70;;;;;;5069535;27;19925;-74
2021/08/09 08:47:12;;;;;;;;;;;19.20;81.80;;;;;;5069566;28;19924;-74
2021/08/09 08:49:39;;;;;;;;;;;19.30;80.40;;;;;;5069478;27;19930;-74
2021/08/09 08:52:06;;;;;;;;;;;19.50;79.50;;;;;;5069495;28;19932;-74
2021/08/09 08:54:33;;;;;;;;;;;19.60;79.00;;;;;;5069383;27;19975;-74
2021/08/09 08:56:59;;;;;;;;;;;19.80;78.70;;;;;;5069341;27;19969;-74
2021/08/09 08:59:26;;;;;;;;;;;20.10;77.60;;;;;;5069440;27;20222;-74
2021/08/09 09:01:52;;;;;;;;;;;20.20;75.90;;;;;;5069432;27;19924;-74
2021/08/09 09:04:22;;;;;;;;;;;20.30;75.10;;;;;;5069039;27;19972;-74
2021/08/09 09:07:00;;;;;;;;;;;20.30;74.80;;;;;;5069189;27;19924;-74
2021/08/09 09:09:31;;;;;;;;;;;20.30;74.10;;;;;;5069198;27;19929;-74
2021/08/09 09:12:00;;;;;;;;;;;20.20;73.90;;;;;;5069110;28;20077;-74
2021/08/09 09:14:28;;;;;;;;;;;20.00;74.10;;;;;;5069468;27;19935;-74
2021/08/09 09:16:56;;;;;;;;;;;19.90;74.60;;;;;;5064615;27;19932;-74
2021/08/09 09:19:37;;;;;;;;;;;19.80;75.20;;;;;;5068698;27;19928;-74
2021/08/09 09:22:23;;;;;;;;;;;20.10;75.70;;;;;;5069237;27;20395;-74
2021/08/09 09:24:54;;;;;;;;;;;20.40;74.50;;;;;;5067775;28;19924;-74
2021/08/09 09:27:31;;;;;;;;;;;20.90;73.30;;;;;;5069185;27;19980;-74
2021/08/09 09:29:59;;;;;;;;;;;21.50;71.50;;;;;;5068918;27;20015;-74
2021/08/09 09:32:26;;;;;;;;;;;22.00;70.20;;;;;;5068783;27;19928;-74
2021/08/09 09:34:53;;;;;;;;;;;22.40;67.50;;;;;;5068914;27;19953;-74
2021/08/09 09:37:30;;;;;;;;;;;22.70;66.30;;;;;;5068698;27;20015;-74
2021/08/09 09:40:12;;;;;;;;;;;23.00;64.70;;;;;;5068466;27;20348;-74
2021/08/09 09:42:40;;;;;;;;;;;22.90;63.60;;;;;;5068846;28;19950;-74
2021/08/09 09:45:23;;;;;;;;;;;22.90;63.30;;;;;;5068620;27;19953;-74
2021/08/09 09:47:59;;;;;;;;;;;22.70;63.70;;;;;;5068731;27;19929;-74
2021/08/09 09:50:26;;;;;;;;;;;22.50;63.50;;;;;;5067255;28;19950;-74
2021/08/09 09:53:17;;;;;;;;;;;22.30;63.80;;;;;;5067261;27;20061;-74
2021/08/09 09:55:44;;;;;;;;;;;22.10;64.60;;;;;;5068530;27;19928;-74
2021/08/09 09:58:11;;;;;;;;;;;21.90;65.30;;;;;;5068471;27;19924;-74
2021/08/09 10:00:38;;;;;;;;;;;21.80;66.00;;;;;;5068249;27;20463;-74
2021/08/09 10:03:04;;;;;;;;;;;21.80;66.00;;;;;;5068399;27;19925;-73
2021/08/09 10:05:32;;;;;;;;;;;21.80;66.00;;;;;;5068185;27;20306;-74
2021/08/09 10:08:01;;;;;;;;;;;21.80;65.70;;;;;;5068670;27;19924;-74
2021/08/09 10:10:28;;;;;;;;;;;21.80;65.70;;;;;;5068582;27;20283;-74
2021/08/09 10:12:56;;;;;;;;;;;21.70;65.80;;;;;;5068440;27;20427;-74
2021/08/09 10:15:22;;;;;;;;;;;21.60;66.10;;;;;;5067191;27;19947;-74
2021/08/09 10:17:52;;;;;;;;;;;21.60;67.00;;;;;;5066536;27;20284;-74
2021/08/09 10:20:19;;;;;;;;;;;21.50;67.00;;;;;;5068188;27;19944;-74
2021/08/09 10:22:59;;;;;;;;;;;21.50;67.40;;;;;;5068459;27;19931;-74
2021/08/09 10:25:44;;;;;;;;;;;21.50;67.50;;;;;;5071755;27;19925;-74
2021/08/09 10:28:12;;;;;;;;;;;21.40;67.40;;;;;;5070351;28;20019;-73
2021/08/09 10:30:38;;;;;;;;;;;21.30;67.40;;;;;;5071635;27;19968;-74
2021/08/09 10:33:11;;;;;;;;;;;21.20;67.50;;;;;;5071630;27;20003;-74
2021/08/09 10:35:46;;;;;;;;;;;21.10;68.20;;;;;;5071848;27;19955;-74
2021/08/09 10:38:16;;;;;;;;;;;21.00;69.00;;;;;;5067960;27;20458;-74
2021/08/09 10:40:42;;;;;;;;;;;20.90;68.60;;;;;;5071269;27;19983;-74
2021/08/09 10:43:10;;;;;;;;;;;20.90;68.90;;;;;;5071269;27;20311;-74
2021/08/09 10:45:41;;;;;;;;;;;20.90;69.30;;;;;;5071737;27;19924;-74
2021/08/09 10:48:09;;;;;;;;;;;21.10;68.70;;;;;;5071370;27;19936;-74
2021/08/09 10:50:43;;;;;;;;;;;21.30;68.00;;;;;;5071436;27;19925;-74
2021/08/09 10:53:25;;;;;;;;;;;21.60;68.20;;;;;;5071229;27;19932;-74
2021/08/09 10:55:53;;;;;;;;;;;21.80;66.00;;;;;;5071208;27;19992;-74
2021/08/09 10:58:39;;;;;;;;;;;21.80;65.50;;;;;;5071232;27;20387;-74
2021/08/09 11:01:06;;;;;;;;;;;22.00;66.00;;;;;;5044521;28;19938;-74
2021/08/09 11:03:32;;;;;;;;;;;22.10;65.30;;;;;;5071235;27;19925;-74
2021/08/09 11:06:19;;;;;;;;;;;22.30;65.00;;;;;;5070918;27;19935;-74
2021/08/09 11:08:45;;;;;;;;;;;22.50;63.50;;;;;;5071005;27;20318;-74
2021/08/09 11:11:12;;;;;;;;;;;22.60;63.20;;;;;;5070887;27;19976;-74
2021/08/09 11:13:39;;;;;;;;;;;22.70;63.50;;;;;;5071096;27;19925;-74
2021/08/09 11:16:05;;;;;;;;;;;22.80;63.00;;;;;;5067496;27;19990;-74
2021/08/09 11:18:35;;;;;;;;;;;22.80;62.80;;;;;;5070807;27;19931;-74
2021/08/09 11:21:03;;;;;;;;;;;22.90;62.40;;;;;;5070915;27;19928;-74
2021/08/09 11:23:41;;;;;;;;;;;22.90;62.20;;;;;;5071019;27;19933;-74
2021/08/09 11:26:17;;;;;;;;;;;22.80;61.90;;;;;;5070814;27;20019;-74
2021/08/09 11:28:55;;;;;;;;;;;22.70;62.00;;;;;;5070747;27;20020;-74
2021/08/09 11:31:21;;;;;;;;;;;22.60;62.90;;;;;;5070490;27;20310;-74
2021/08/09 11:33:48;;;;;;;;;;;22.40;62.70;;;;;;5070784;27;19957;-74
2021/08/09 11:36:15;;;;;;;;;;;22.30;62.80;;;;;;5067256;27;19932;-74
2021/08/09 11:38:52;;;;;;;;;;;22.10;63.70;;;;;;5070767;27;19928;-74
2021/08/09 11:41:22;;;;;;;;;;;21.80;64.40;;;;;;5070198;27;20410;-74
2021/08/09 11:43:50;;;;;;;;;;;21.80;64.30;;;;;;5071073;27;19925;-74
2021/08/09 11:46:18;;;;;;;;;;;21.70;64.90;;;;;;5070485;27;19924;-74
2021/08/09 11:48:46;;;;;;;;;;;21.60;65.20;;;;;;5070657;27;19940;-74
2021/08/09 11:51:15;;;;;;;;;;;21.50;65.70;;;;;;5070798;27;19931;-74
2021/08/09 11:53:45;;;;;;;;;;;21.50;65.90;;;;;;5070443;27;20304;-74
2021/08/09 11:56:16;;;;;;;;;;;21.50;66.00;;;;;;5070372;27;19925;-74
2021/08/09 11:58:43;;;;;;;;;;;21.60;66.10;;;;;;5070027;27;19928;-74
2021/08/09 12:01:18;;;;;;;;;;;21.70;65.40;;;;;;5070296;27;19924;-74
2021/08/09 12:04:05;;;;;;;;;;;21.70;65.40;;;;;;5070409;27;19950;-74
2021/08/09 12:06:33;;;;;;;;;;;21.80;64.50;;;;;;5070062;27;20015;-74
2021/08/09 12:09:00;;;;;;;;;;;21.90;64.50;;;;;;5070013;27;19924;-74
2021/08/09 12:11:30;;;;;;;;;;;22.10;64.40;;;;;;5070099;27;19925;-73
2021/08/09 12:14:04;;;;;;;;;;;22.30;63.60;;;;;;5069962;27;19925;-70
2021/08/09 12:16:44;;;;;;;;;;;22.40;63.30;;;;;;5066833;27;19971;-70
2021/08/09 12:19:15;;;;;;;;;;;22.30;63.50;;;;;;5069882;27;19970;-69
2021/08/09 12:21:42;;;;;;;;;;;22.30;63.80;;;;;;5070152;27;19929;-70
2021/08/09 12:24:14;;;;;;;;;;;22.30;63.80;;;;;;5069866;27;19925;-69
2021/08/09 12:26:42;;;;;;;;;;;22.20;63.90;;;;;;5069863;27;19924;-69
2021/08/09 12:29:15;;;;;;;;;;;22.30;63.90;;;;;;5069740;27;19925;-70
2021/08/09 12:31:45;;;;;;;;;;;22.20;63.20;;;;;;5069868;27;19931;-70
2021/08/09 12:34:17;;;;;;;;;;;22.20;63.50;;;;;;5069911;27;19925;-70
2021/08/09 12:36:45;;;;;;;;;;;22.20;62.20;;;;;;5065422;27;20362;-70
2021/08/09 12:39:33;;;;;;;;;;;22.30;61.80;;;;;;5069652;27;19924;-69
2021/08/09 12:42:13;;;;;;;;;;;22.20;62.00;;;;;;5044268;27;20320;-70
2021/08/09 12:44:40;;;;;;;;;;;22.30;62.20;;;;;;5069609;28;19929;-70
2021/08/09 12:47:07;;;;;;;;;;;22.30;61.50;;;;;;5068963;27;20314;-70
2021/08/09 12:49:34;;;;;;;;;;;22.40;60.70;;;;;;5069562;27;20398;-70
2021/08/09 12:52:00;;;;;;;;;;;22.50;60.70;;;;;;5069280;27;19936;-70
2021/08/09 12:54:30;;;;;;;;;;;22.60;60.40;;;;;;5069087;27;19924;-70
2021/08/09 12:56:57;;;;;;;;;;;22.60;60.10;;;;;;5069533;27;19924;-70
2021/08/09 12:59:25;;;;;;;;;;;22.60;59.80;;;;;;5069345;27;19975;-70
2021/08/09 13:01:52;;;;;;;;;;;22.50;60.20;;;;;;5069498;27;20414;-70
2021/08/09 13:04:18;;;;;;;;;;;22.40;60.30;;;;;;5069264;27;20180;-70
2021/08/09 13:06:44;;;;;;;;;;;22.30;60.70;;;;;;5069236;27;19928;-70
2021/08/09 13:09:12;;;;;;;;;;;22.20;61.30;;;;;;5067339;27;20292;-70
2021/08/09 13:11:38;;;;;;;;;;;22.20;62.10;;;;;;5069132;27;19928;-70
2021/08/09 13:14:05;;;;;;;;;;;22.10;62.40;;;;;;5069115;27;19928;-70
2021/08/09 13:16:34;;;;;;;;;;;22.00;62.90;;;;;;5066045;27;19925;-70
2021/08/09 13:19:01;;;;;;;;;;;22.00;62.50;;;;;;5068799;27;20319;-70
2021/08/09 13:21:27;;;;;;;;;;;22.00;62.70;;;;;;5069129;27;20395;-70
2021/08/09 13:23:55;;;;;;;;;;;22.00;62.90;;;;;;5068732;27;19947;-70
2021/08/09 13:26:21;;;;;;;;;;;22.10;62.80;;;;;;5068878;27;19946;-70
2021/08/09 13:28:48;;;;;;;;;;;22.10;63.00;;;;;;5069553;27;19928;-70
2021/08/09 13:31:15;;;;;;;;;;;22.20;63.30;;;;;;5068798;27;19924;-70
2021/08/09 13:33:41;;;;;;;;;;;22.20;62.70;;;;;;5068835;27;19924;-70
2021/08/09 13:36:07;;;;;;;;;;;22.20;62.30;;;;;;5065581;27;19925;-70
2021/08/09 13:38:34;;;;;;;;;;;22.30;62.40;;;;;;5068411;27;19931;-70
2021/08/09 13:41:00;;;;;;;;;;;22.20;62.50;;;;;;5068998;27;19925;-70
2021/08/09 13:43:27;;;;;;;;;;;22.30;62.10;;;;;;5068419;27;19989;-70
2021/08/09 13:45:53;;;;;;;;;;;22.40;61.00;;;;;;5068519;27;20358;-70
2021/08/09 13:48:21;;;;;;;;;;;22.40;61.20;;;;;;5068715;27;20398;-70
2021/08/09 13:50:47;;;;;;;;;;;22.40;61.20;;;;;;5068739;27;19924;-69
2021/08/09 13:53:14;;;;;;;;;;;22.40;61.50;;;;;;5068113;27;19924;-68
2021/08/09 13:55:41;;;;;;;;;;;22.40;61.80;;;;;;5068677;27;19928;-70
2021/08/09 13:58:08;;;;;;;;;;;22.30;62.40;;;;;;5068030;28;19928;-70
2021/08/09 14:00:35;;;;;;;;;;;22.20;63.40;;;;;;5071894;27;19924;-69
2021/08/09 14:03:03;;;;;;;;;;;22.10;65.50;;;;;;5072090;27;19928;-69
2021/08/09 14:05:29;;;;;;;;;;;22.00;66.10;;;;;;5071711;27;20356;-70
2021/08/09 14:08:00;;;;;;;;;;;21.90;67.10;;;;;;5072117;27;19928;-69
2021/08/09 14:10:27;;;;;;;;;;;21.70;69.50;;;;;;5071976;27;19925;-70
2021/08/09 14:12:56;;;;;;;;;;;21.50;69.50;;;;;;5072172;27;19925;-69
2021/08/09 14:15:23;;;;;;;;;;;21.40;70.10;;;;;;5070867;27;19924;-69
2021/08/09 14:17:52;;;;;;;;;;;21.30;70.20;;;;;;5070494;27;19925;-70
2021/08/09 14:20:18;;;;;;;;;;;21.20;70.00;;;;;;5072151;27;19973;-70
2021/08/09 14:22:46;;;;;;;;;;;21.10;71.00;;;;;;5071753;27;20319;-70
2021/08/09 14:25:13;;;;;;;;;;;21.10;70.30;;;;;;5071483;27;19925;-70
2021/08/09 14:27:39;;;;;;;;;;;21.10;70.30;;;;;;5070643;28;19968;-70
2021/08/09 14:30:07;;;;;;;;;;;21.10;69.70;;;;;;5071880;27;19925;-70
2021/08/09 14:32:41;;;;;;;;;;;21.20;68.90;;;;;;5071425;27;19929;-70
2021/08/09 14:35:13;;;;;;;;;;;21.20;68.30;;;;;;5071168;27;20383;-69
2021/08/09 14:37:43;;;;;;;;;;;21.30;67.90;;;;;;5068381;27;19924;-70
2021/08/09 14:40:10;;;;;;;;;;;21.30;67.50;;;;;;5071702;27;19925;-70
2021/08/09 14:42:38;;;;;;;;;;;21.40;67.30;;;;;;5070144;28;19925;-70
2021/08/09 14:45:05;;;;;;;;;;;21.40;67.20;;;;;;5071326;27;19989;-69